createdAt,value
2018-05-16T00:02:02.040Z,79.32
2018-05-16T00:04:30.518Z,79.55
2018-05-16T00:06:57.982Z,80.00
2018-05-16T00:09:25.433Z,80.48
2018-05-16T00:11:52.890Z,80.88
2018-05-16T00:14:20.286Z,80.74
2018-05-16T00:16:47.732Z,80.59
2018-05-16T00:19:16.035Z,80.26
2018-05-16T00:21:43.493Z,80.37
2018-05-16T00:24:10.945Z,80.40
2018-05-16T00:26:38.375Z,80.16
2018-05-16T00:29:05.821Z,79.92
2018-05-16T00:31:33.297Z,79.69
2018-05-16T00:34:00.693Z,79.66
2018-05-16T00:36:28.090Z,79.45
2018-05-16T00:38:55.601Z,79.47
2018-05-16T00:41:23.016Z,79.49
2018-05-16T00:43:50.478Z,79.53
2018-05-16T00:46:17.903Z,79.70
2018-05-16T00:48:45.331Z,79.74
2018-05-16T00:51:24.461Z,79.57
2018-05-16T00:53:51.905Z,79.41
2018-05-16T00:56:19.360Z,79.29
2018-05-16T00:58:46.847Z,79.25
2018-05-16T01:01:14.254Z,79.13
2018-05-16T01:03:41.696Z,79.34
2018-05-16T01:06:09.173Z,79.90
2018-05-16T01:08:36.654Z,80.46
2018-05-16T01:11:04.081Z,80.31
2018-05-16T01:13:31.545Z,80.19
2018-05-16T01:15:58.936Z,80.03
2018-05-16T01:18:27.281Z,79.98
2018-05-16T01:20:54.678Z,79.90
2018-05-16T01:23:22.181Z,79.93
2018-05-16T01:25:49.615Z,79.98
2018-05-16T01:28:17.065Z,80.15
2018-05-16T01:30:44.456Z,80.51
2018-05-16T01:33:11.867Z,80.57
2018-05-16T01:35:39.294Z,80.57
2018-05-16T01:38:06.719Z,80.35
2018-05-16T01:40:34.156Z,79.99
2018-05-16T01:43:01.546Z,79.94
2018-05-16T01:45:29.707Z,80.05
2018-05-16T01:47:57.135Z,80.23
2018-05-16T01:50:24.570Z,80.44
2018-05-16T01:52:51.994Z,80.37
2018-05-16T01:55:19.400Z,80.12
2018-05-16T01:57:50.547Z,80.01
2018-05-16T02:00:18.073Z,80.18
2018-05-16T02:02:45.549Z,80.06
2018-05-16T02:05:13.038Z,80.07
2018-05-16T02:07:40.441Z,80.10
2018-05-16T02:10:07.879Z,80.10
2018-05-16T02:12:35.295Z,79.99
2018-05-16T02:15:03.761Z,79.91
2018-05-16T02:17:31.204Z,79.78
2018-05-16T02:19:58.611Z,80.01
2018-05-16T02:22:26.089Z,79.96
2018-05-16T02:24:53.750Z,80.14
2018-05-16T02:27:21.200Z,80.15
2018-05-16T02:29:48.623Z,79.84
2018-05-16T02:32:16.023Z,80.61
2018-05-16T02:34:43.470Z,81.30
2018-05-16T02:37:10.911Z,81.81
2018-05-16T02:39:38.309Z,81.97
2018-05-16T02:42:09.348Z,82.02
2018-05-16T02:44:37.624Z,81.89
2018-05-16T02:47:05.025Z,81.84
2018-05-16T02:49:32.464Z,82.25
2018-05-16T02:51:59.912Z,82.56
2018-05-16T02:54:27.409Z,82.63
2018-05-16T02:56:54.902Z,82.89
2018-05-16T02:59:22.425Z,83.08
2018-05-16T03:01:49.859Z,82.78
2018-05-16T03:04:17.293Z,82.22
2018-05-16T03:06:44.707Z,82.11
2018-05-16T03:09:13.078Z,81.89
2018-05-16T03:11:42.145Z,81.52
2018-05-16T03:14:09.545Z,81.35
2018-05-16T03:16:37.025Z,81.28
2018-05-16T03:19:05.655Z,81.21
2018-05-16T03:21:33.128Z,81.15
2018-05-16T03:24:00.568Z,81.22
2018-05-16T03:26:28.001Z,81.25
2018-05-16T03:28:55.455Z,81.41
2018-05-16T03:31:22.953Z,81.30
2018-05-16T03:33:50.396Z,81.35
2018-05-16T03:36:17.941Z,81.25
2018-05-16T03:38:45.398Z,81.17
2018-05-16T03:41:12.852Z,81.20
2018-05-16T03:43:40.288Z,81.23
2018-05-16T03:46:08.444Z,81.29
2018-05-16T03:48:36.706Z,81.43
2018-05-16T03:51:04.413Z,81.41
2018-05-16T03:53:32.243Z,81.40
2018-05-16T03:55:59.639Z,81.40
2018-05-16T03:58:38.793Z,82.03
2018-05-16T04:01:17.984Z,81.63
2018-05-16T04:06:45.422Z,81.31
2018-05-16T04:09:12.863Z,81.21
2018-05-16T04:11:40.307Z,81.43
2018-05-16T04:14:07.738Z,81.38
2018-05-16T04:16:35.154Z,81.37
2018-05-16T04:19:02.623Z,81.30
2018-05-16T04:21:30.011Z,81.37
2018-05-16T04:23:57.429Z,81.36
2018-05-16T04:26:24.890Z,81.36
2018-05-16T04:28:53.434Z,81.16
2018-05-16T04:31:20.852Z,81.21
2018-05-16T04:33:48.263Z,81.50
2018-05-16T04:36:15.734Z,81.54
2018-05-16T04:38:44.273Z,81.29
2018-05-16T04:41:11.706Z,81.21
2018-05-16T04:43:39.580Z,81.24
2018-05-16T04:46:08.239Z,80.94
2018-05-16T04:48:35.701Z,80.97
2018-05-16T04:51:03.133Z,80.87
2018-05-16T04:53:31.331Z,80.92
2018-05-16T04:55:58.767Z,80.73
2018-05-16T04:58:26.859Z,80.66
2018-05-16T05:00:54.542Z,80.54
2018-05-16T05:03:21.960Z,80.34
2018-05-16T05:05:49.406Z,80.38
2018-05-16T05:08:17.664Z,80.22
2018-05-16T05:10:45.091Z,80.21
2018-05-16T05:13:13.370Z,79.87
2018-05-16T05:15:40.772Z,80.04
2018-05-16T05:18:08.181Z,80.47
2018-05-16T05:20:35.614Z,80.41
2018-05-16T05:23:03.040Z,80.22
2018-05-16T05:25:30.651Z,80.09
2018-05-16T05:27:58.114Z,80.05
2018-05-16T05:30:25.620Z,80.34
2018-05-16T05:32:52.924Z,80.72
2018-05-16T05:35:20.351Z,80.46
2018-05-16T05:37:48.776Z,80.19
2018-05-16T05:40:16.629Z,79.66
2018-05-16T05:42:45.564Z,79.18
2018-05-16T05:45:12.984Z,79.13
2018-05-16T05:47:43.353Z,79.12
2018-05-16T05:50:10.794Z,78.72
2018-05-16T05:52:38.372Z,78.63
2018-05-16T05:55:05.823Z,78.28
2018-05-16T05:57:33.268Z,78.08
2018-05-16T06:00:00.741Z,78.00
2018-05-16T06:02:28.095Z,77.85
2018-05-16T06:04:57.332Z,78.09
2018-05-16T06:07:24.785Z,78.17
2018-05-16T06:09:52.800Z,78.03
2018-05-16T06:12:20.223Z,77.82
2018-05-16T06:14:48.854Z,78.26
2018-05-16T06:17:16.331Z,78.97
2018-05-16T06:19:43.828Z,79.32
2018-05-16T06:22:11.297Z,79.06
2018-05-16T06:24:38.705Z,78.97
2018-05-16T06:27:06.226Z,78.73
2018-05-16T06:29:33.645Z,78.93
2018-05-16T06:32:01.128Z,79.18
2018-05-16T06:34:28.560Z,79.20
2018-05-16T06:36:56.009Z,78.86
2018-05-16T06:39:23.485Z,78.68
2018-05-16T06:41:50.887Z,78.40
2018-05-16T06:44:18.333Z,78.43
2018-05-16T06:46:45.818Z,78.04
2018-05-16T06:49:13.297Z,77.50
2018-05-16T06:51:40.880Z,76.84
2018-05-16T06:54:08.271Z,76.62
2018-05-16T06:56:35.716Z,76.48
2018-05-16T06:59:03.173Z,76.15
2018-05-16T07:01:31.857Z,75.86
2018-05-16T07:03:59.362Z,76.39
2018-05-16T07:06:26.767Z,76.64
2018-05-16T07:08:54.226Z,76.10
2018-05-16T07:11:21.727Z,75.33
2018-05-16T07:13:49.727Z,74.21
2018-05-16T07:16:17.196Z,72.83
2018-05-16T07:18:44.642Z,71.86
2018-05-16T07:21:12.080Z,70.36
2018-05-16T07:23:39.681Z,69.05
2018-05-16T07:26:07.075Z,67.77
2018-05-16T07:28:34.578Z,67.47
2018-05-16T07:31:02.011Z,66.91
2018-05-16T07:33:29.415Z,65.73
2018-05-16T07:35:57.691Z,64.35
2018-05-16T07:38:25.089Z,62.66
2018-05-16T07:40:52.557Z,61.73
2018-05-16T07:43:20.864Z,60.96
2018-05-16T07:45:48.456Z,61.54
2018-05-16T07:48:15.895Z,62.25
2018-05-16T07:50:43.303Z,62.75
2018-05-16T07:53:10.787Z,63.48
2018-05-16T07:55:38.247Z,64.31
2018-05-16T07:58:05.682Z,64.46
2018-05-16T08:00:33.178Z,64.86
2018-05-16T08:03:00.615Z,64.54
2018-05-16T08:05:28.051Z,63.84
2018-05-16T08:07:55.586Z,63.46
2018-05-16T08:10:23.144Z,63.53
2018-05-16T08:12:50.612Z,63.24
2018-05-16T08:15:18.100Z,63.04
2018-05-16T08:17:46.067Z,62.33
2018-05-16T08:20:13.583Z,62.08
2018-05-16T08:22:41.045Z,60.26
2018-05-16T08:25:08.497Z,59.19
2018-05-16T08:27:35.941Z,59.04
2018-05-16T08:30:03.395Z,58.24
2018-05-16T08:32:30.877Z,59.18
2018-05-16T08:34:58.290Z,60.56
2018-05-16T08:37:26.221Z,60.98
2018-05-16T08:39:54.860Z,60.99
2018-05-16T08:42:22.389Z,61.00
2018-05-16T08:44:50.437Z,61.46
2018-05-16T08:47:18.989Z,61.57
2018-05-16T08:49:46.389Z,61.56
2018-05-16T08:52:13.880Z,61.32
2018-05-16T08:54:41.287Z,61.30
2018-05-16T08:57:09.591Z,60.66
2018-05-16T08:59:37.041Z,58.53
2018-05-16T09:02:04.473Z,57.81
2018-05-16T09:04:31.984Z,57.28
2018-05-16T09:06:59.421Z,55.67
2018-05-16T09:09:26.860Z,53.73
2018-05-16T09:11:54.333Z,53.95
2018-05-16T09:14:21.804Z,54.69
2018-05-16T09:16:49.212Z,55.16
2018-05-16T09:19:16.681Z,55.60
2018-05-16T09:21:44.085Z,54.88
2018-05-16T09:24:11.533Z,54.77
2018-05-16T09:26:39.031Z,54.73
2018-05-16T09:29:06.464Z,55.01
2018-05-16T09:31:33.923Z,55.32
2018-05-16T09:34:01.401Z,55.11
2018-05-16T09:36:28.916Z,55.00
2018-05-16T09:38:56.338Z,55.36
2018-05-16T09:41:25.988Z,55.86
2018-05-16T09:43:53.439Z,56.42
2018-05-16T09:46:20.905Z,56.08
2018-05-16T09:48:48.429Z,56.70
2018-05-16T09:51:15.863Z,56.53
2018-05-16T09:53:43.352Z,56.52
2018-05-16T09:56:10.808Z,56.98
2018-05-16T09:58:38.278Z,57.14
2018-05-16T10:01:05.775Z,57.26
2018-05-16T10:03:33.245Z,57.38
2018-05-16T10:06:00.764Z,58.16
2018-05-16T10:08:28.790Z,58.57
2018-05-16T10:10:56.253Z,60.16
2018-05-16T10:13:23.824Z,60.53
2018-05-16T10:15:51.234Z,62.57
2018-05-16T10:18:18.669Z,63.46
2018-05-16T10:20:46.220Z,64.78
2018-05-16T10:23:13.671Z,66.30
2018-05-16T10:25:41.170Z,68.64
2018-05-16T10:28:08.629Z,71.83
2018-05-16T10:30:36.137Z,73.82
2018-05-16T10:33:03.574Z,74.42
2018-05-16T10:35:31.028Z,75.22
2018-05-16T10:37:58.445Z,76.01
2018-05-16T10:40:25.871Z,77.09
2018-05-16T10:42:53.401Z,77.45
2018-05-16T10:45:20.872Z,77.78
2018-05-16T10:47:48.410Z,77.05
2018-05-16T10:50:15.887Z,76.97
2018-05-16T10:52:43.347Z,78.42
2018-05-16T10:55:11.295Z,78.73
2018-05-16T10:57:38.743Z,78.39
2018-05-16T11:00:06.220Z,77.05
2018-05-16T11:02:33.675Z,76.31
2018-05-16T11:05:01.506Z,75.28
2018-05-16T11:07:28.934Z,74.32
2018-05-16T11:09:56.377Z,73.09
2018-05-16T11:12:24.135Z,72.27
2018-05-16T11:14:51.608Z,71.25
2018-05-16T11:17:19.096Z,70.42
2018-05-16T11:19:46.855Z,69.12
2018-05-16T11:22:14.395Z,68.85
2018-05-16T11:24:41.820Z,68.45
2018-05-16T11:27:09.259Z,67.77
2018-05-16T11:29:36.682Z,68.55
2018-05-16T11:32:04.315Z,67.25
2018-05-16T11:34:31.723Z,66.88
2018-05-16T11:37:00.052Z,66.79
2018-05-16T11:39:27.504Z,67.72
2018-05-16T11:41:55.029Z,67.84
2018-05-16T11:44:22.647Z,68.29
2018-05-16T11:46:50.110Z,67.86
2018-05-16T11:49:17.617Z,67.25
2018-05-16T11:51:45.096Z,67.35
2018-05-16T11:54:12.527Z,67.05
2018-05-16T11:56:40.041Z,66.14
2018-05-16T11:59:07.540Z,65.26
2018-05-16T12:01:34.940Z,64.87
2018-05-16T12:04:02.333Z,64.12
2018-05-16T12:06:29.779Z,64.28
2018-05-16T12:08:58.415Z,64.55
2018-05-16T12:11:25.858Z,64.67
2018-05-16T12:13:53.280Z,65.00
2018-05-16T12:16:20.746Z,65.28
2018-05-16T12:18:48.178Z,66.68
2018-05-16T12:21:15.661Z,65.90
2018-05-16T12:23:43.088Z,65.17
2018-05-16T12:26:10.516Z,63.73
2018-05-16T12:28:37.914Z,63.63
2018-05-16T12:31:05.357Z,62.78
2018-05-16T12:33:34.473Z,63.54
2018-05-16T12:36:01.904Z,63.32
2018-05-16T12:38:29.336Z,62.41
2018-05-16T12:40:56.776Z,62.73
2018-05-16T12:43:30.896Z,65.06
2018-05-16T12:45:59.800Z,64.96
2018-05-16T12:48:27.194Z,64.86
2018-05-16T12:50:54.616Z,64.07
2018-05-16T12:53:22.081Z,65.64
2018-05-16T12:55:49.616Z,65.17
2018-05-16T12:58:17.041Z,65.80
2018-05-16T13:00:44.469Z,65.75
2018-05-16T13:03:11.917Z,65.40
2018-05-16T13:05:39.386Z,65.92
2018-05-16T13:08:06.837Z,66.03
2018-05-16T13:10:34.278Z,65.85
2018-05-16T13:13:01.824Z,65.89
2018-05-16T13:15:29.142Z,65.63
2018-05-16T13:17:56.636Z,65.58
2018-05-16T13:20:24.043Z,64.97
2018-05-16T13:22:51.496Z,65.40
2018-05-16T13:25:19.175Z,64.09
2018-05-16T13:27:46.567Z,63.00
2018-05-16T13:30:14.007Z,61.99
2018-05-16T13:32:41.608Z,61.41
2018-05-16T13:35:09.095Z,61.47
2018-05-16T13:37:36.548Z,63.27
2018-05-16T13:40:04.175Z,62.32
2018-05-16T13:42:33.386Z,61.37
2018-05-16T13:45:00.852Z,60.58
2018-05-16T13:47:28.476Z,61.08
2018-05-16T13:49:55.914Z,60.51
2018-05-16T13:52:23.549Z,60.88
2018-05-16T13:54:51.059Z,60.72
2018-05-16T13:57:19.289Z,62.17
2018-05-16T13:59:46.699Z,61.96
2018-05-16T14:02:14.159Z,63.16
2018-05-16T14:04:41.632Z,66.05
2018-05-16T14:07:09.859Z,67.30
2018-05-16T14:09:37.336Z,68.09
2018-05-16T14:12:04.790Z,68.33
2018-05-16T14:14:32.248Z,68.33
2018-05-16T14:17:00.393Z,68.35
2018-05-16T14:19:28.225Z,67.84
2018-05-16T14:21:55.678Z,68.33
2018-05-16T14:24:23.094Z,68.25
2018-05-16T14:26:51.314Z,67.76
2018-05-16T14:29:18.749Z,67.81
2018-05-16T14:31:46.246Z,67.95
2018-05-16T14:34:13.709Z,68.61
2018-05-16T14:36:41.197Z,68.73
2018-05-16T14:39:09.633Z,68.18
2018-05-16T14:41:38.023Z,67.35
2018-05-16T14:44:05.477Z,66.74
2018-05-16T14:46:32.933Z,66.40
2018-05-16T14:49:00.332Z,66.41
2018-05-16T14:51:27.816Z,66.64
2018-05-16T14:53:56.121Z,65.29
2018-05-16T14:56:23.547Z,65.55
2018-05-16T14:58:51.029Z,65.69
2018-05-16T15:01:18.462Z,65.78
2018-05-16T15:03:45.904Z,64.94
2018-05-16T15:06:14.061Z,64.63
2018-05-16T15:08:42.096Z,64.78
2018-05-16T15:11:09.540Z,64.18
2018-05-16T15:13:37.005Z,64.37
2018-05-16T15:16:04.404Z,62.93
2018-05-16T15:18:31.872Z,62.91
2018-05-16T15:20:59.369Z,62.49
2018-05-16T15:23:28.057Z,62.54
2018-05-16T15:25:55.485Z,61.86
2018-05-16T15:28:25.669Z,61.53
2018-05-16T15:30:53.101Z,60.45
2018-05-16T15:33:21.618Z,59.77
2018-05-16T15:35:49.062Z,59.58
2018-05-16T15:38:16.546Z,60.61
2018-05-16T15:40:43.964Z,59.54
2018-05-16T15:43:11.465Z,60.10
2018-05-16T15:48:12.620Z,61.17
2018-05-16T15:50:40.036Z,61.54
2018-05-16T15:53:08.203Z,61.79
2018-05-16T15:55:35.660Z,61.56
2018-05-16T15:58:03.175Z,61.62
2018-05-16T16:00:30.642Z,62.17
2018-05-16T16:02:58.057Z,60.61
2018-05-16T16:05:25.509Z,59.38
2018-05-16T16:07:52.967Z,59.20
2018-05-16T16:10:20.457Z,59.06
2018-05-16T16:12:48.080Z,58.63
2018-05-16T16:15:15.613Z,57.60
2018-05-16T16:17:42.941Z,57.72
2018-05-16T16:20:10.934Z,57.76
2018-05-16T16:22:38.357Z,57.80
2018-05-16T16:25:05.798Z,57.50
2018-05-16T16:27:33.192Z,58.19
2018-05-16T16:30:10.026Z,59.24
2018-05-16T16:32:37.489Z,58.59
2018-05-16T16:35:04.956Z,59.17
2018-05-16T16:37:33.101Z,58.45
2018-05-16T16:40:00.523Z,58.11
2018-05-16T16:42:28.001Z,57.46
2018-05-16T16:44:55.667Z,56.92
2018-05-16T16:47:24.750Z,56.67
2018-05-16T16:49:52.231Z,56.97
2018-05-16T16:52:19.667Z,57.62
2018-05-16T16:54:47.110Z,57.67
2018-05-16T16:57:14.578Z,57.58
2018-05-16T16:59:44.031Z,57.61
2018-05-16T17:02:11.490Z,57.80
2018-05-16T17:04:40.404Z,58.17
2018-05-16T17:07:07.767Z,58.38
2018-05-16T17:09:35.224Z,59.12
2018-05-16T17:12:02.680Z,59.45
2018-05-16T17:14:30.121Z,60.04
2018-05-16T17:16:57.805Z,61.23
2018-05-16T17:19:25.239Z,61.95
2018-05-16T17:21:53.288Z,62.25
2018-05-16T17:24:20.833Z,62.88
2018-05-16T17:26:48.329Z,63.65
2018-05-16T17:29:15.745Z,63.90
2018-05-16T17:31:43.159Z,63.90
2018-05-16T17:34:10.591Z,63.62
2018-05-16T17:36:38.373Z,64.62
2018-05-16T17:39:05.781Z,64.74
2018-05-16T17:41:33.244Z,64.48
2018-05-16T17:44:00.698Z,64.35
2018-05-16T17:46:28.140Z,64.76
2018-05-16T17:48:55.645Z,64.42
2018-05-16T17:51:23.150Z,64.36
2018-05-16T17:53:50.611Z,64.49
2018-05-16T17:56:19.077Z,64.87
2018-05-16T17:58:47.793Z,64.49
2018-05-16T18:01:15.276Z,64.81
2018-05-16T18:03:43.608Z,65.17
2018-05-16T18:06:11.121Z,65.20
2018-05-16T18:08:38.560Z,65.35
2018-05-16T18:11:06.035Z,65.24
2018-05-16T18:16:45.373Z,66.25
2018-05-16T18:19:12.891Z,65.22
2018-05-16T18:21:40.322Z,65.09
2018-05-16T18:24:07.984Z,64.85
2018-05-16T18:26:35.418Z,64.36
2018-05-16T18:29:02.873Z,64.67
2018-05-16T18:31:30.314Z,65.12
2018-05-16T18:33:58.132Z,65.31
2018-05-16T18:36:25.600Z,64.87
2018-05-16T18:38:52.995Z,64.94
2018-05-16T18:41:20.441Z,64.91
2018-05-16T18:43:47.988Z,64.97
2018-05-16T18:46:15.423Z,65.50
2018-05-16T18:48:42.998Z,66.37
2018-05-16T18:51:11.510Z,66.67
2018-05-16T18:53:38.944Z,66.22
2018-05-16T18:56:13.265Z,66.17
2018-05-16T18:58:40.714Z,66.10
2018-05-16T19:01:08.115Z,65.88
2018-05-16T19:03:35.594Z,66.30
2018-05-16T19:06:03.048Z,66.77
2018-05-16T19:08:30.481Z,67.55
2018-05-16T19:10:59.233Z,68.17
2018-05-16T19:13:27.921Z,69.43
2018-05-16T19:15:55.389Z,70.47
2018-05-16T19:18:25.284Z,71.30
2018-05-16T19:20:52.729Z,71.67
2018-05-16T19:23:20.222Z,71.95
2018-05-16T19:25:49.011Z,72.12
2018-05-16T19:28:16.502Z,72.25
2018-05-16T19:30:43.967Z,72.83
2018-05-16T19:33:11.404Z,73.17
2018-05-16T19:35:40.753Z,73.14
2018-05-16T19:38:08.189Z,73.00
2018-05-16T19:40:35.735Z,73.28
2018-05-16T19:43:03.044Z,73.56
2018-05-16T19:45:30.522Z,73.30
2018-05-16T19:47:57.957Z,73.36
2018-05-16T19:50:25.364Z,73.22
2018-05-16T19:52:52.986Z,73.31
2018-05-16T19:55:20.356Z,73.65
2018-05-16T19:57:48.651Z,73.93
2018-05-16T20:00:16.112Z,74.12
2018-05-16T20:02:43.552Z,74.06
2018-05-16T20:05:11.029Z,74.30
2018-05-16T20:07:38.494Z,74.45
2018-05-16T20:10:08.623Z,74.65
2018-05-16T20:12:36.081Z,74.78
2018-05-16T20:15:03.577Z,75.22
2018-05-16T20:17:31.505Z,75.68
2018-05-16T20:19:58.968Z,75.98
2018-05-16T20:22:26.375Z,76.15
2018-05-16T20:24:53.837Z,76.42
2018-05-16T20:27:21.248Z,76.58
2018-05-16T20:29:48.651Z,76.65
2018-05-16T20:32:16.088Z,76.49
2018-05-16T20:34:43.547Z,76.23
2018-05-16T20:37:11.016Z,75.92
2018-05-16T20:39:38.805Z,76.02
2018-05-16T20:42:06.253Z,75.92
2018-05-16T20:44:34.170Z,75.69
2018-05-16T20:47:01.860Z,75.75
2018-05-16T20:49:29.326Z,75.80
2018-05-16T20:51:56.726Z,75.81
2018-05-16T20:54:24.134Z,75.97
2018-05-16T20:56:51.609Z,76.10
2018-05-16T20:59:19.097Z,76.28
2018-05-16T21:01:47.349Z,76.19
2018-05-16T21:04:14.824Z,76.40
2018-05-16T21:06:42.301Z,76.65
2018-05-16T21:09:09.744Z,76.62
2018-05-16T21:11:37.968Z,76.55
2018-05-16T21:14:05.434Z,76.76
2018-05-16T21:16:32.878Z,76.77
2018-05-16T21:19:00.311Z,76.57
2018-05-16T21:21:27.755Z,76.63
2018-05-16T21:23:55.292Z,76.58
2018-05-16T21:26:22.726Z,76.64
2018-05-16T21:28:50.114Z,76.80
2018-05-16T21:31:17.567Z,76.71
2018-05-16T21:33:45.011Z,76.69
2018-05-16T21:36:12.416Z,76.79
2018-05-16T21:38:39.882Z,76.62
2018-05-16T21:41:07.317Z,76.58
2018-05-16T21:43:34.746Z,76.63
2018-05-16T21:46:02.243Z,76.53
2018-05-16T21:48:30.576Z,76.45
2018-05-16T21:50:58.057Z,76.15
2018-05-16T21:53:25.606Z,76.03
2018-05-16T21:55:53.061Z,75.76
2018-05-16T21:58:20.469Z,75.56
2018-05-16T22:00:47.953Z,75.55
2018-05-16T22:03:15.391Z,75.67
2018-05-16T22:05:42.861Z,75.97
2018-05-16T22:08:11.436Z,75.59
2018-05-16T22:10:39.027Z,75.54
2018-05-16T22:13:06.437Z,75.58
2018-05-16T22:15:33.920Z,75.68
2018-05-16T22:18:01.511Z,75.45
2018-05-16T22:20:29.049Z,75.56
2018-05-16T22:22:56.519Z,75.52
2018-05-16T22:25:23.947Z,75.71
2018-05-16T22:27:51.408Z,75.71
2018-05-16T22:30:18.238Z,75.73
2018-05-16T22:32:51.210Z,76.26
2018-05-16T22:35:24.298Z,76.03
2018-05-16T22:37:57.450Z,76.00
2018-05-16T22:40:30.587Z,75.75
2018-05-16T22:42:58.350Z,75.32
2018-05-16T22:48:19.702Z,75.03
2018-05-16T22:50:47.179Z,74.68
2018-05-16T22:53:14.792Z,74.17
2018-05-16T22:55:42.255Z,74.34
2018-05-16T22:58:09.699Z,74.24
2018-05-16T23:00:37.146Z,74.06
2018-05-16T23:03:04.551Z,74.01
2018-05-16T23:05:32.285Z,73.71
2018-05-16T23:07:59.866Z,73.40
2018-05-16T23:10:27.299Z,73.21
2018-05-16T23:12:54.846Z,73.51
2018-05-16T23:15:22.274Z,73.86
2018-05-16T23:17:49.780Z,74.04
2018-05-16T23:20:17.293Z,74.22
2018-05-16T23:22:45.003Z,74.11
2018-05-16T23:25:12.455Z,73.96
2018-05-16T23:27:40.615Z,73.91
2018-05-16T23:30:08.029Z,73.45
2018-05-16T23:32:35.465Z,73.67
2018-05-16T23:35:02.981Z,73.81
2018-05-16T23:37:32.008Z,73.53
2018-05-16T23:39:59.444Z,73.12
2018-05-16T23:42:26.908Z,73.01
2018-05-16T23:44:54.396Z,73.07
2018-05-16T23:47:21.882Z,73.37
2018-05-16T23:49:49.405Z,73.51
2018-05-16T23:52:16.808Z,73.68
2018-05-16T23:54:44.708Z,73.95
2018-05-16T23:57:12.161Z,74.12
2018-05-16T23:59:39.546Z,73.79
